Time;durP1;ratioP1;P1;durP2;ratioP2;P2;SDS_P1;SDS_P2;PMS_P1;PMS_P2;Temp;Humidity;BMP_temperature;BMP_pressure;BME280_temperature;BME280_humidity;BME280_pressure;Samples;Min_cycle;Max_cycle;Signal;HPM_P1;HPM_P2
2023/03/09 00:01:39;;;;;;;30.75;20.42;;;8.30;77.60;;;;;;4966642;28;20023;-65
2023/03/09 00:04:05;;;;;;;28.85;20.40;;;8.30;77.60;;;;;;4974805;28;20114;-63
2023/03/09 00:06:31;;;;;;;26.77;19.55;;;8.20;77.70;;;;;;4974233;28;20035;-65
2023/03/09 00:08:57;;;;;;;23.00;18.05;;;8.20;77.80;;;;;;4974747;28;20534;-65
2023/03/09 00:11:24;;;;;;;27.75;19.80;;;8.10;77.60;;;;;;4974597;28;20538;-66
2023/03/09 00:13:50;;;;;;;24.65;18.27;;;8.10;77.70;;;;;;4976829;28;20062;-63
2023/03/09 00:16:23;;;;;;;24.88;18.88;;;8.10;77.80;;;;;;4973891;28;20042;-58
2023/03/09 00:18:51;;;;;;;23.88;18.10;;;8.10;78.10;;;;;;4974502;28;20390;-58
2023/03/09 00:21:36;;;;;;;24.52;18.42;;;8.10;78.10;;;;;;4974621;28;20030;-56
2023/03/09 00:24:11;;;;;;;26.42;19.25;;;8.10;78.20;;;;;;4964347;28;20446;-58
2023/03/09 00:26:39;;;;;;;28.92;19.45;;;8.10;78.30;;;;;;4973606;28;20035;-58
2023/03/09 00:29:07;;;;;;;27.27;19.80;;;8.00;78.30;;;;;;4974059;28;20351;-59
2023/03/09 00:31:33;;;;;;;28.50;20.42;;;8.00;78.50;;;;;;4973168;28;20035;-62
2023/03/09 00:33:59;;;;;;;25.50;18.50;;;8.00;78.60;;;;;;4974670;28;20053;-63
2023/03/09 00:36:24;;;;;;;25.75;18.80;;;8.10;78.60;;;;;;4973892;28;20031;-57
2023/03/09 00:38:55;;;;;;;29.70;20.42;;;8.10;78.50;;;;;;4974201;28;20034;-59
2023/03/09 00:41:22;;;;;;;22.55;17.10;;;8.10;78.40;;;;;;4974160;28;20031;-55
2023/03/09 00:43:48;;;;;;;23.25;17.65;;;8.10;78.70;;;;;;4964555;28;20062;-60
2023/03/09 00:46:14;;;;;;;22.55;16.73;;;8.10;78.90;;;;;;4975197;28;20088;-63
2023/03/09 00:48:40;;;;;;;19.40;15.40;;;8.10;78.70;;;;;;4982686;28;20034;-63
2023/03/09 00:51:06;;;;;;;20.85;15.95;;;8.10;78.60;;;;;;4973458;28;20454;-62
2023/03/09 00:53:32;;;;;;;20.08;15.52;;;8.10;78.50;;;;;;4973915;28;20035;-63
2023/03/09 00:56:12;;;;;;;20.35;14.57;;;8.10;78.50;;;;;;4972088;28;20081;-63
2023/03/09 00:58:37;;;;;;;17.80;12.88;;;8.10;78.60;;;;;;4978010;28;20042;-63
2023/03/09 01:01:11;;;;;;;18.27;12.10;;;8.10;78.60;;;;;;4973732;28;20038;-63
2023/03/09 01:03:37;;;;;;;16.13;11.63;;;8.20;78.70;;;;;;4973559;28;20042;-62
2023/03/09 01:06:04;;;;;;;15.82;11.25;;;8.20;78.60;;;;;;4973627;28;20034;-64
2023/03/09 01:08:30;;;;;;;14.85;11.95;;;8.20;78.50;;;;;;4973426;28;20150;-66
2023/03/09 01:10:55;;;;;;;15.93;12.02;;;8.20;78.60;;;;;;4973680;28;20466;-65
2023/03/09 01:13:21;;;;;;;15.65;11.20;;;8.10;78.50;;;;;;4976078;28;20164;-65
2023/03/09 01:15:47;;;;;;;13.98;11.10;;;8.10;78.60;;;;;;4973155;28;20386;-63
2023/03/09 01:18:12;;;;;;;13.02;9.65;;;8.10;78.70;;;;;;4972945;28;20161;-63
2023/03/09 01:20:38;;;;;;;12.95;10.32;;;8.10;78.80;;;;;;4973446;28;20390;-63
2023/03/09 01:23:04;;;;;;;12.10;9.13;;;8.10;78.80;;;;;;4969485;28;20062;-63
2023/03/09 01:25:29;;;;;;;11.85;9.40;;;8.10;78.80;;;;;;4973400;28;20080;-63
2023/03/09 01:27:55;;;;;;;13.27;10.18;;;8.10;78.80;;;;;;4970579;28;20055;-63
2023/03/09 01:30:21;;;;;;;11.45;8.85;;;8.10;78.70;;;;;;4972100;28;20030;-62
2023/03/09 01:32:46;;;;;;;11.48;9.48;;;8.10;78.70;;;;;;4972424;28;20031;-61
2023/03/09 01:35:14;;;;;;;12.50;8.98;;;8.00;78.70;;;;;;4973264;28;20513;-57
2023/03/09 01:37:39;;;;;;;10.10;8.20;;;8.00;78.80;;;;;;4973432;28;20031;-57
2023/03/09 01:40:06;;;;;;;12.13;9.23;;;8.00;78.90;;;;;;4973016;28;20030;-58
2023/03/09 01:42:33;;;;;;;11.25;8.98;;;8.00;79.10;;;;;;4972502;28;20050;-57
2023/03/09 01:45:17;;;;;;;13.27;9.82;;;7.90;79.10;;;;;;4972742;28;20037;-59
2023/03/09 01:47:43;;;;;;;10.93;8.93;;;7.90;79.00;;;;;;4985835;28;20366;-62
2023/03/09 01:50:09;;;;;;;11.30;9.07;;;7.90;79.10;;;;;;4973049;28;20042;-62
2023/03/09 01:52:35;;;;;;;12.75;9.05;;;7.90;79.20;;;;;;4970887;28;20038;-63
2023/03/09 01:55:05;;;;;;;11.63;9.32;;;7.90;79.10;;;;;;4972749;28;20057;-63
2023/03/09 01:57:51;;;;;;;13.93;9.82;;;7.90;79.10;;;;;;4974581;28;20065;-62
2023/03/09 02:00:24;;;;;;;15.00;10.70;;;7.80;79.00;;;;;;4972828;28;20035;-62
2023/03/09 02:02:55;;;;;;;13.60;10.05;;;7.80;79.30;;;;;;4961514;28;20031;-61
2023/03/09 02:05:30;;;;;;;13.60;9.98;;;7.80;79.30;;;;;;4971301;28;20057;-58
2023/03/09 02:07:57;;;;;;;12.10;9.20;;;7.80;79.10;;;;;;4965769;28;20105;-59
2023/03/09 02:10:28;;;;;;;11.88;9.05;;;7.80;79.10;;;;;;4976989;28;20058;-56
2023/03/09 02:12:58;;;;;;;11.73;9.35;;;7.80;78.90;;;;;;4977235;28;20026;-64
2023/03/09 02:15:24;;;;;;;13.18;9.48;;;7.80;78.70;;;;;;4963236;28;20038;-64
2023/03/09 02:17:51;;;;;;;11.93;9.80;;;7.80;78.60;;;;;;4977166;28;20037;-63
2023/03/09 02:20:24;;;;;;;13.55;9.90;;;7.80;78.50;;;;;;4961278;28;20023;-63
2023/03/09 02:22:50;;;;;;;12.75;9.43;;;7.80;78.70;;;;;;4969950;28;20058;-62
2023/03/09 02:25:37;;;;;;;12.70;9.25;;;7.80;78.90;;;;;;4975402;28;20473;-63
2023/03/09 02:28:05;;;;;;;13.32;9.65;;;7.80;79.10;;;;;;4976700;28;20027;-62
2023/03/09 02:30:35;;;;;;;12.73;9.80;;;7.80;79.40;;;;;;4975643;28;20019;-62
2023/03/09 02:33:04;;;;;;;13.43;9.85;;;7.80;79.40;;;;;;4976363;28;20054;-62
2023/03/09 02:35:30;;;;;;;13.02;10.43;;;7.80;79.40;;;;;;4975165;28;20050;-62
2023/03/09 02:37:56;;;;;;;15.30;10.95;;;7.80;79.30;;;;;;4978133;28;20046;-62
2023/03/09 02:40:33;;;;;;;14.73;10.80;;;7.90;79.30;;;;;;4976415;28;20469;-62
2023/03/09 02:43:01;;;;;;;12.05;9.98;;;7.90;79.40;;;;;;4977014;28;20039;-63
2023/03/09 02:45:29;;;;;;;13.73;10.57;;;7.90;79.40;;;;;;4975159;28;20039;-62
2023/03/09 02:47:55;;;;;;;11.95;9.75;;;7.90;79.40;;;;;;4980600;28;20449;-63
2023/03/09 02:50:21;;;;;;;12.35;10.48;;;7.90;79.40;;;;;;4975948;28;20081;-61
2023/03/09 02:52:47;;;;;;;13.10;10.10;;;7.90;79.40;;;;;;4974312;28;20035;-63
2023/03/09 02:55:12;;;;;;;13.13;9.80;;;7.90;79.50;;;;;;4975110;28;20156;-62
2023/03/09 02:57:40;;;;;;;12.00;9.73;;;7.90;79.50;;;;;;4980625;28;20493;-65
2023/03/09 03:00:08;;;;;;;11.70;9.65;;;8.00;79.50;;;;;;4975895;28;20035;-62
2023/03/09 03:02:34;;;;;;;11.95;9.93;;;8.00;79.40;;;;;;4976139;28;20054;-63
2023/03/09 03:05:00;;;;;;;12.15;9.13;;;8.00;79.20;;;;;;4975257;28;20062;-62
2023/03/09 03:07:26;;;;;;;13.25;9.38;;;8.00;79.20;;;;;;4975264;28;20062;-57
2023/03/09 03:09:51;;;;;;;13.02;9.43;;;8.00;79.10;;;;;;4975798;28;20034;-57
2023/03/09 03:12:18;;;;;;;13.60;9.50;;;8.00;79.10;;;;;;4975892;28;20550;-65
2023/03/09 03:14:44;;;;;;;11.73;9.43;;;8.00;79.10;;;;;;4971493;28;20375;-65
2023/03/09 03:17:10;;;;;;;11.40;9.25;;;8.00;78.90;;;;;;4973424;28;20046;-59
2023/03/09 03:19:36;;;;;;;12.30;9.60;;;8.00;79.40;;;;;;4973678;28;20030;-56
2023/03/09 03:22:02;;;;;;;11.43;8.27;;;8.00;78.70;;;;;;4974710;28;20030;-62
2023/03/09 03:24:28;;;;;;;12.05;9.32;;;8.00;78.60;;;;;;4973333;28;20073;-62
2023/03/09 03:26:54;;;;;;;12.13;9.35;;;7.90;78.60;;;;;;4972425;28;20486;-57
2023/03/09 03:29:21;;;;;;;11.70;8.90;;;7.90;78.70;;;;;;4975530;28;20105;-58
2023/03/09 03:31:47;;;;;;;11.07;8.68;;;7.90;78.70;;;;;;4975633;28;20023;-55
2023/03/09 03:34:13;;;;;;;11.55;8.88;;;7.90;78.80;;;;;;4972518;28;20434;-57
2023/03/09 03:36:38;;;;;;;11.63;8.82;;;7.80;78.80;;;;;;4980615;28;20076;-63
2023/03/09 03:39:05;;;;;;;11.68;9.38;;;7.80;78.90;;;;;;4977379;28;20046;-62
2023/03/09 03:41:31;;;;;;;12.55;8.45;;;7.80;78.90;;;;;;4968239;28;20389;-63
2023/03/09 03:43:57;;;;;;;10.77;8.13;;;7.80;79.00;;;;;;4975238;28;20057;-63
2023/03/09 03:46:23;;;;;;;10.70;8.13;;;7.80;78.90;;;;;;4979499;28;20034;-62
2023/03/09 03:48:48;;;;;;;9.70;7.88;;;7.80;78.90;;;;;;4979989;28;20026;-62
2023/03/09 03:51:14;;;;;;;8.82;7.35;;;7.80;78.80;;;;;;4974954;28;20062;-63
2023/03/09 03:53:40;;;;;;;10.18;7.80;;;7.80;78.90;;;;;;4975206;28;20031;-63
2023/03/09 03:56:06;;;;;;;10.07;7.90;;;7.70;78.80;;;;;;4973200;28;20043;-61
2023/03/09 03:58:32;;;;;;;11.38;7.60;;;7.70;78.80;;;;;;4977207;28;20365;-62
2023/03/09 04:00:57;;;;;;;8.95;7.35;;;7.70;78.80;;;;;;4973191;28;20453;-62
2023/03/09 04:03:23;;;;;;;9.15;7.30;;;7.70;78.90;;;;;;4975067;28;20045;-63
2023/03/09 04:05:49;;;;;;;9.55;7.72;;;7.80;79.10;;;;;;4974047;28;20119;-63
2023/03/09 04:08:14;;;;;;;10.63;7.43;;;7.80;79.20;;;;;;4974895;28;20023;-62
2023/03/09 04:10:41;;;;;;;9.00;7.45;;;7.80;79.20;;;;;;4974701;28;20474;-58
2023/03/09 04:13:07;;;;;;;9.10;7.30;;;7.80;79.10;;;;;;4976039;28;20042;-59
2023/03/09 04:15:33;;;;;;;10.60;7.47;;;7.80;79.00;;;;;;4974552;28;20035;-57
2023/03/09 04:17:59;;;;;;;8.93;7.53;;;7.80;79.00;;;;;;4974927;28;20123;-57
2023/03/09 04:20:24;;;;;;;9.48;7.63;;;7.80;79.00;;;;;;4974777;28;20022;-57
2023/03/09 04:22:50;;;;;;;9.23;7.78;;;7.80;79.00;;;;;;4975010;28;20062;-64
2023/03/09 04:25:16;;;;;;;9.57;7.70;;;7.90;79.00;;;;;;4973278;28;20042;-65
2023/03/09 04:27:42;;;;;;;9.82;7.75;;;7.90;78.90;;;;;;4974513;28;20023;-57
2023/03/09 04:30:10;;;;;;;11.13;8.38;;;7.90;78.80;;;;;;4973221;28;20051;-57
2023/03/09 04:32:36;;;;;;;10.98;8.77;;;7.90;79.00;;;;;;4974501;28;20026;-63
2023/03/09 04:35:01;;;;;;;11.68;8.75;;;7.90;78.90;;;;;;4974441;28;20023;-63
2023/03/09 04:37:27;;;;;;;12.63;9.10;;;7.90;78.90;;;;;;4974419;28;20034;-63
2023/03/09 04:39:53;;;;;;;13.13;9.35;;;8.00;79.10;;;;;;4974120;28;20042;-64
2023/03/09 04:42:18;;;;;;;14.55;9.40;;;8.00;79.00;;;;;;4974210;28;20054;-63
2023/03/09 04:44:44;;;;;;;13.90;10.00;;;8.00;79.10;;;;;;4974697;28;20105;-66
2023/03/09 04:47:13;;;;;;;13.15;9.70;;;8.10;79.10;;;;;;4984786;28;20390;-62
2023/03/09 04:49:40;;;;;;;13.35;9.68;;;8.10;79.10;;;;;;4973662;28;20035;-63
2023/03/09 04:52:07;;;;;;;15.52;10.30;;;8.20;79.10;;;;;;4974138;28;20105;-62
2023/03/09 04:54:33;;;;;;;15.15;10.38;;;8.30;79.10;;;;;;4973868;28;20042;-64
2023/03/09 04:56:58;;;;;;;13.73;10.23;;;8.30;79.10;;;;;;4975733;28;20039;-64
2023/03/09 04:59:24;;;;;;;12.40;9.75;;;8.40;79.10;;;;;;4972548;28;20034;-65
2023/03/09 05:01:49;;;;;;;12.45;9.63;;;8.50;79.10;;;;;;4974570;28;20358;-62
2023/03/09 05:04:15;;;;;;;13.93;10.43;;;8.50;78.90;;;;;;4973603;28;20026;-63
2023/03/09 05:06:41;;;;;;;13.25;10.20;;;8.60;78.80;;;;;;4973351;28;20113;-63
2023/03/09 05:09:07;;;;;;;13.30;10.20;;;8.70;78.60;;;;;;4973449;28;20041;-63
2023/03/09 05:11:33;;;;;;;12.43;10.20;;;8.70;78.40;;;;;;4973971;28;20394;-62
2023/03/09 05:13:59;;;;;;;12.98;10.43;;;8.80;78.20;;;;;;4972342;28;20061;-62
2023/03/09 05:16:25;;;;;;;15.05;10.60;;;8.80;78.00;;;;;;4972617;28;20039;-64
2023/03/09 05:18:51;;;;;;;13.35;10.30;;;8.80;77.80;;;;;;4973270;28;20042;-65
2023/03/09 05:21:18;;;;;;;12.25;9.50;;;8.80;77.50;;;;;;4960680;28;20031;-58
2023/03/09 05:23:44;;;;;;;13.23;10.25;;;8.80;77.40;;;;;;4973536;28;20066;-57
2023/03/09 05:26:10;;;;;;;12.02;9.32;;;8.80;77.50;;;;;;4972504;28;20030;-62
2023/03/09 05:28:37;;;;;;;13.30;9.55;;;8.70;77.60;;;;;;4969857;28;20106;-63
2023/03/09 05:31:06;;;;;;;13.35;9.63;;;8.80;77.80;;;;;;4973103;28;20037;-64
2023/03/09 05:33:32;;;;;;;12.55;9.38;;;8.80;77.90;;;;;;4971287;28;20098;-64
2023/03/09 05:35:57;;;;;;;13.52;10.10;;;8.80;78.00;;;;;;4969568;28;20035;-64
2023/03/09 05:38:23;;;;;;;14.18;10.52;;;8.90;78.30;;;;;;4971454;28;20039;-64
2023/03/09 05:40:49;;;;;;;12.73;9.80;;;9.00;78.20;;;;;;4972438;28;20073;-62
2023/03/09 05:43:14;;;;;;;20.00;13.18;;;9.10;78.00;;;;;;4973407;28;20022;-63
2023/03/09 05:45:40;;;;;;;20.23;14.02;;;9.10;77.60;;;;;;4972493;28;20093;-64
2023/03/09 05:48:06;;;;;;;18.42;13.13;;;9.10;77.10;;;;;;4984266;28;20512;-64
2023/03/09 05:50:32;;;;;;;16.45;12.20;;;9.10;77.50;;;;;;4972812;28;20031;-64
2023/03/09 05:52:58;;;;;;;16.80;12.60;;;9.10;76.80;;;;;;4972723;28;20026;-65
2023/03/09 05:55:24;;;;;;;17.50;12.20;;;9.10;77.10;;;;;;4972507;28;20022;-65
2023/03/09 05:57:49;;;;;;;17.58;12.60;;;9.10;77.30;;;;;;4974946;28;20039;-57
2023/03/09 06:00:16;;;;;;;16.83;12.00;;;9.20;77.90;;;;;;4971767;28;20512;-57
2023/03/09 06:02:42;;;;;;;15.27;11.63;;;9.40;78.60;;;;;;4956921;28;20138;-63
2023/03/09 06:05:08;;;;;;;13.82;10.75;;;9.70;79.50;;;;;;4970755;28;20118;-63
2023/03/09 06:07:33;;;;;;;14.70;10.65;;;10.10;79.20;;;;;;4972892;28;20421;-62
2023/03/09 06:09:59;;;;;;;14.35;10.55;;;10.40;78.60;;;;;;4971599;28;20093;-62
2023/03/09 06:12:25;;;;;;;12.30;10.45;;;10.90;78.30;;;;;;4972063;28;20019;-61
2023/03/09 06:14:52;;;;;;;13.52;10.52;;;11.40;77.80;;;;;;4974123;28;20478;-61
2023/03/09 06:17:18;;;;;;;12.40;9.82;;;12.00;77.00;;;;;;4971756;28;20062;-61
2023/03/09 06:19:43;;;;;;;12.32;8.88;;;12.60;75.80;;;;;;4980429;28;20125;-62
2023/03/09 06:22:09;;;;;;;11.18;8.95;;;13.20;74.40;;;;;;4970912;28;20153;-62
2023/03/09 06:24:35;;;;;;;14.32;10.32;;;13.60;73.10;;;;;;4972574;28;20030;-62
2023/03/09 06:27:02;;;;;;;15.98;11.00;;;14.00;71.80;;;;;;4970555;28;20038;-62
2023/03/09 06:29:28;;;;;;;18.20;12.20;;;14.30;70.90;;;;;;4965697;28;20054;-65
2023/03/09 06:31:53;;;;;;;15.93;11.23;;;14.70;70.10;;;;;;4962094;28;20057;-61
2023/03/09 06:34:19;;;;;;;18.38;12.35;;;15.00;68.90;;;;;;4961108;28;20030;-62
2023/03/09 06:36:45;;;;;;;15.88;11.50;;;15.20;67.80;;;;;;4960707;28;20044;-64
2023/03/09 06:39:11;;;;;;;15.82;11.57;;;15.30;66.80;;;;;;4963883;28;20035;-64
2023/03/09 06:41:37;;;;;;;14.38;11.00;;;15.20;65.90;;;;;;4963068;28;20038;-63
2023/03/09 06:44:03;;;;;;;14.18;11.10;;;15.00;65.70;;;;;;4958194;28;20531;-62
2023/03/09 06:46:30;;;;;;;15.50;11.23;;;14.80;65.60;;;;;;4959117;28;20035;-61
2023/03/09 06:48:56;;;;;;;13.23;10.82;;;14.60;65.60;;;;;;4963814;28;20032;-61
2023/03/09 06:51:22;;;;;;;16.58;11.35;;;14.40;65.80;;;;;;4965537;28;21338;-62
2023/03/09 06:53:48;;;;;;;13.45;10.48;;;14.10;66.20;;;;;;4967507;28;20077;-62
2023/03/09 06:56:14;;;;;;;12.93;9.70;;;13.90;66.10;;;;;;4964097;28;20121;-62
2023/03/09 06:58:40;;;;;;;12.13;9.88;;;13.80;66.60;;;;;;4975810;28;20454;-62
2023/03/09 07:01:10;;;;;;;12.55;9.43;;;13.70;66.80;;;;;;4968924;28;20043;-61
2023/03/09 07:03:37;;;;;;;12.88;9.98;;;13.60;66.60;;;;;;4961205;28;20038;-64
2023/03/09 07:06:03;;;;;;;13.52;9.40;;;13.50;66.60;;;;;;4968590;28;20634;-61
2023/03/09 07:08:28;;;;;;;13.02;9.80;;;13.50;66.60;;;;;;4964518;28;20031;-60
2023/03/09 07:10:54;;;;;;;13.23;9.20;;;13.40;66.50;;;;;;4961470;28;20418;-61
2023/03/09 07:13:20;;;;;;;12.38;10.02;;;13.40;66.40;;;;;;4975101;28;20101;-62
2023/03/09 07:15:46;;;;;;;14.63;9.85;;;13.30;66.30;;;;;;4966259;28;20097;-60
2023/03/09 07:18:12;;;;;;;11.95;9.38;;;13.30;66.40;;;;;;4971356;28;20054;-61
2023/03/09 07:20:39;;;;;;;12.55;9.25;;;13.30;66.80;;;;;;4965131;28;20054;-60
2023/03/09 07:23:06;;;;;;;11.85;8.90;;;13.30;66.90;;;;;;4965261;28;20443;-60
2023/03/09 07:25:34;;;;;;;10.48;8.60;;;13.30;67.00;;;;;;4966980;28;20030;-60
2023/03/09 07:28:01;;;;;;;11.55;8.13;;;13.40;66.90;;;;;;4969914;28;20030;-61
2023/03/09 07:30:28;;;;;;;8.68;6.78;;;13.40;66.50;;;;;;4964063;28;20165;-61
2023/03/09 07:32:55;;;;;;;11.15;8.23;;;13.30;65.90;;;;;;4967565;28;20038;-61
2023/03/09 07:35:21;;;;;;;9.82;7.78;;;13.30;65.70;;;;;;4964109;28;20164;-60
2023/03/09 07:37:47;;;;;;;9.02;7.05;;;13.20;65.40;;;;;;4963857;28;20023;-60
2023/03/09 07:40:13;;;;;;;8.27;6.63;;;13.10;65.40;;;;;;4961956;28;20075;-60
2023/03/09 07:42:38;;;;;;;8.30;6.80;;;13.00;65.60;;;;;;4958404;28;20031;-60
2023/03/09 07:45:06;;;;;;;7.45;5.57;;;13.00;65.70;;;;;;4962398;28;20027;-62
2023/03/09 07:47:32;;;;;;;9.98;6.00;;;13.00;65.50;;;;;;4965336;28;20031;-60
2023/03/09 07:49:58;;;;;;;9.50;6.20;;;13.00;65.50;;;;;;4966415;28;20675;-60
2023/03/09 07:52:30;;;;;;;6.95;6.10;;;13.00;65.50;;;;;;4958706;28;20065;-60
2023/03/09 07:54:57;;;;;;;7.53;5.90;;;13.00;65.50;;;;;;4957589;28;20638;-60
2023/03/09 07:57:23;;;;;;;6.75;5.55;;;13.00;65.50;;;;;;4956066;28;20133;-61
2023/03/09 07:59:55;;;;;;;7.13;5.85;;;13.00;65.50;;;;;;4962637;28;20066;-60
2023/03/09 08:02:21;;;;;;;6.95;5.32;;;13.10;65.50;;;;;;4967517;28;20035;-61
2023/03/09 08:04:47;;;;;;;8.35;5.53;;;13.10;65.40;;;;;;4963896;28;20034;-62
2023/03/09 08:07:13;;;;;;;6.22;5.05;;;13.10;65.50;;;;;;4957908;28;20034;-60
2023/03/09 08:09:42;;;;;;;5.72;4.88;;;13.10;65.50;;;;;;4953800;28;20039;-62
2023/03/09 08:12:08;;;;;;;7.80;5.60;;;13.10;65.60;;;;;;4963443;28;20110;-62
2023/03/09 08:14:34;;;;;;;9.20;5.72;;;13.10;65.60;;;;;;4951522;28;20051;-62
2023/03/09 08:17:02;;;;;;;7.03;5.63;;;13.10;65.50;;;;;;4953187;28;20039;-61
2023/03/09 08:19:28;;;;;;;7.18;5.25;;;13.10;65.40;;;;;;4960697;28;20065;-60
2023/03/09 08:21:53;;;;;;;7.40;5.88;;;13.10;65.40;;;;;;4961019;28;20787;-59
2023/03/09 08:24:19;;;;;;;8.50;5.90;;;13.10;65.40;;;;;;4952253;28;20031;-63
2023/03/09 08:26:45;;;;;;;6.40;5.43;;;13.10;65.50;;;;;;4954066;28;20038;-61
2023/03/09 08:29:11;;;;;;;6.57;5.47;;;13.10;65.40;;;;;;4950862;28;20046;-60
2023/03/09 08:31:37;;;;;;;8.00;5.57;;;13.10;65.40;;;;;;4949102;28;20034;-61
2023/03/09 08:34:04;;;;;;;6.15;4.93;;;13.10;65.20;;;;;;4953711;28;20081;-62
2023/03/09 08:36:30;;;;;;;7.15;5.50;;;13.20;65.20;;;;;;4952183;28;20039;-63
2023/03/09 08:38:56;;;;;;;5.97;4.78;;;13.20;65.10;;;;;;4962058;28;20050;-63
2023/03/09 08:41:22;;;;;;;7.65;5.35;;;13.30;65.20;;;;;;4951887;28;20031;-61
2023/03/09 08:43:49;;;;;;;7.57;5.07;;;13.30;65.10;;;;;;4951771;28;20062;-61
2023/03/09 08:46:15;;;;;;;7.40;5.38;;;13.40;65.70;;;;;;4954397;28;20117;-62
2023/03/09 08:48:41;;;;;;;5.85;4.82;;;13.50;65.00;;;;;;4953249;28;20086;-61
2023/03/09 08:51:08;;;;;;;6.88;4.68;;;13.60;65.10;;;;;;4960285;28;20529;-61
2023/03/09 08:53:36;;;;;;;5.22;4.30;;;13.70;65.00;;;;;;4976444;28;20085;-61
2023/03/09 08:56:10;;;;;;;6.22;4.70;;;13.70;64.70;;;;;;4957221;28;20436;-59
2023/03/09 08:58:36;;;;;;;5.90;4.30;;;13.90;64.60;;;;;;4950161;28;20046;-60
2023/03/09 09:01:03;;;;;;;7.18;5.28;;;13.90;64.40;;;;;;4951727;28;20038;-61
2023/03/09 09:03:29;;;;;;;5.40;4.40;;;14.00;64.40;;;;;;4952807;28;20481;-62
2023/03/09 09:06:03;;;;;;;6.13;4.50;;;14.00;64.00;;;;;;4953849;28;20030;-61
2023/03/09 09:08:28;;;;;;;5.93;4.57;;;14.10;63.90;;;;;;4954820;28;20033;-59
2023/03/09 09:10:56;;;;;;;5.82;4.55;;;14.20;64.00;;;;;;4949954;28;20840;-61
2023/03/09 09:13:23;;;;;;;5.43;4.15;;;14.20;64.00;;;;;;4955096;28;20832;-60
2023/03/09 09:15:55;;;;;;;5.70;4.40;;;14.30;63.80;;;;;;4962705;28;20088;-61
2023/03/09 09:18:21;;;;;;;5.88;3.97;;;14.30;63.60;;;;;;4945089;28;20089;-62
2023/03/09 09:20:48;;;;;;;5.53;4.53;;;14.30;63.50;;;;;;4951408;28;20030;-62
2023/03/09 09:23:14;;;;;;;5.95;4.45;;;14.30;63.20;;;;;;4980255;28;20090;-61
2023/03/09 09:25:39;;;;;;;5.47;4.10;;;14.40;63.20;;;;;;4952437;28;20046;-59
2023/03/09 09:28:05;;;;;;;6.43;4.03;;;14.40;63.20;;;;;;4959306;28;20097;-59
2023/03/09 09:30:32;;;;;;;5.70;4.50;;;14.50;63.10;;;;;;4936433;28;20034;-60
2023/03/09 09:33:00;;;;;;;5.88;4.32;;;14.50;62.90;;;;;;4953771;28;20485;-61
2023/03/09 09:35:26;;;;;;;5.38;4.53;;;14.60;62.60;;;;;;4950050;28;20075;-63
2023/03/09 09:37:54;;;;;;;5.40;3.97;;;14.60;63.10;;;;;;4959937;28;20435;-59
2023/03/09 09:40:20;;;;;;;5.22;4.10;;;14.60;62.40;;;;;;4966364;28;20532;-60
2023/03/09 09:42:47;;;;;;;4.93;3.72;;;14.60;62.20;;;;;;4958490;28;20030;-59
2023/03/09 09:45:33;;;;;;;4.38;3.72;;;14.70;62.10;;;;;;4945478;28;20070;-60
2023/03/09 09:48:03;;;;;;;4.88;3.80;;;14.70;62.00;;;;;;4945216;28;20041;-59
2023/03/09 09:50:53;;;;;;;4.20;3.35;;;14.80;61.90;;;;;;4960141;28;20046;-61
2023/03/09 09:53:56;;;;;;;3.90;3.50;;;14.80;61.50;;;;;;4951757;28;20105;-62
2023/03/09 09:56:26;;;;;;;4.22;3.50;;;14.80;61.50;;;;;;4950450;28;20046;-61
2023/03/09 09:58:52;;;;;;;5.30;3.53;;;14.80;61.30;;;;;;4953281;28;20663;-61
2023/03/09 10:01:35;;;;;;;4.65;3.53;;;14.80;61.20;;;;;;4946496;28;20049;-61
2023/03/09 10:04:07;;;;;;;3.47;3.17;;;14.80;61.10;;;;;;4946425;28;20033;-61
2023/03/09 10:06:32;;;;;;;;;;;14.80;61.20;;;;;;4957003;28;20702;-60
2023/03/09 10:09:11;;;;;;;5.68;3.65;;;14.80;60.80;;;;;;4956471;28;19929;-59
2023/03/09 10:11:46;;;;;;;4.57;3.70;;;14.80;61.30;;;;;;4950255;28;20118;-60
2023/03/09 10:14:26;;;;;;;4.95;3.88;;;14.80;61.40;;;;;;4959307;28;20042;-59
2023/03/09 10:17:01;;;;;;;5.47;4.00;;;14.80;61.50;;;;;;4952304;28;20410;-60
2023/03/09 10:19:37;;;;;;;5.35;4.00;;;14.90;61.40;;;;;;4952802;28;20043;-60
2023/03/09 10:22:12;;;;;;;4.68;3.90;;;14.90;61.30;;;;;;4949471;28;20029;-62
2023/03/09 10:24:45;;;;;;;4.75;3.75;;;14.90;61.10;;;;;;4962287;28;20370;-62
2023/03/09 10:27:28;;;;;;;5.30;3.75;;;15.00;61.00;;;;;;4955961;28;20035;-65
2023/03/09 10:30:02;;;;;;;4.22;3.70;;;15.00;60.60;;;;;;4958048;28;20038;-63
2023/03/09 10:32:40;;;;;;;5.30;4.03;;;15.00;60.90;;;;;;4960333;28;20081;-61
2023/03/09 10:35:26;;;;;;;5.18;3.92;;;15.00;60.20;;;;;;4953542;28;20137;-59
2023/03/09 10:37:52;;;;;;;5.25;3.50;;;15.00;60.00;;;;;;4928292;28;20054;-60
2023/03/09 10:40:30;;;;;;;4.50;3.40;;;15.10;59.90;;;;;;4955821;28;20030;-63
2023/03/09 10:42:59;;;;;;;4.95;3.33;;;15.10;59.80;;;;;;4963868;28;20074;-62
2023/03/09 10:45:32;;;;;;;3.88;3.15;;;15.10;59.90;;;;;;4947717;28;20065;-61
2023/03/09 10:48:09;;;;;;;4.43;3.50;;;15.10;59.70;;;;;;4960365;28;20050;-61
2023/03/09 10:50:40;;;;;;;4.82;3.75;;;15.20;59.80;;;;;;4955283;28;20035;-61
2023/03/09 10:53:28;;;;;;;4.72;3.63;;;15.20;59.80;;;;;;4952516;28;20041;-60
2023/03/09 10:56:02;;;;;;;3.97;3.50;;;15.20;59.50;;;;;;4946466;28;20049;-62
2023/03/09 10:58:28;;;;;;;5.90;3.97;;;15.20;59.40;;;;;;4954101;28;20065;-61
2023/03/09 11:01:03;;;;;;;4.70;3.72;;;15.30;59.50;;;;;;4936438;28;20470;-59
2023/03/09 11:03:38;;;;;;;5.13;3.80;;;15.30;59.50;;;;;;4946003;28;20145;-60
2023/03/09 11:06:12;;;;;;;4.22;3.10;;;15.30;59.50;;;;;;4949410;28;20331;-60
2023/03/09 11:08:41;;;;;;;4.25;3.28;;;15.30;59.40;;;;;;4968839;28;20034;-62
2023/03/09 11:11:19;;;;;;;3.92;3.53;;;15.40;59.30;;;;;;4941652;28;20035;-62
2023/03/09 11:13:46;;;;;;;5.65;3.60;;;15.40;59.00;;;;;;4955705;28;20102;-61
2023/03/09 11:16:22;;;;;;;4.03;3.60;;;15.50;59.10;;;;;;4954986;28;20039;-63
2023/03/09 11:18:51;;;;;;;4.05;3.30;;;15.50;58.70;;;;;;4958889;28;20037;-59
2023/03/09 11:21:23;;;;;;;4.78;3.40;;;15.50;58.50;;;;;;4954431;28;20045;-60
2023/03/09 11:23:52;;;;;;;4.65;3.60;;;15.50;58.50;;;;;;4946584;28;20047;-60
2023/03/09 11:26:25;;;;;;;5.63;3.90;;;15.60;58.60;;;;;;4948334;28;20145;-62
2023/03/09 11:28:57;;;;;;;4.45;3.50;;;15.60;58.50;;;;;;4960505;28;20054;-63
2023/03/09 11:31:23;;;;;;;;;;;15.60;58.40;;;;;;4962676;28;20031;-63
2023/03/09 11:33:52;;;;;;;4.40;3.60;;;15.50;57.90;;;;;;4972389;28;19927;-62
2023/03/09 11:36:59;;;;;;;3.92;3.45;;;15.60;58.70;;;;;;4966061;28;20049;-62
2023/03/09 11:39:31;;;;;;;3.55;3.25;;;15.50;58.30;;;;;;4921493;29;20050;-62
2023/03/09 11:41:59;;;;;;;4.03;3.30;;;15.50;58.60;;;;;;4918469;29;20031;-62
2023/03/09 11:44:30;;;;;;;4.00;3.40;;;15.50;58.30;;;;;;4942967;28;20063;-62
2023/03/09 11:47:01;;;;;;;3.10;2.80;;;15.50;58.30;;;;;;4967126;28;20030;-62
2023/03/09 11:49:28;;;;;;;5.20;3.50;;;15.50;58.30;;;;;;4965633;28;20034;-63
2023/03/09 11:51:57;;;;;;;3.90;2.97;;;15.50;58.40;;;;;;4964227;28;20804;-62
2023/03/09 11:54:26;;;;;;;4.85;4.10;;;15.60;58.50;;;;;;4963496;28;20037;-62
2023/03/09 11:56:53;;;;;;;4.53;3.50;;;15.60;58.30;;;;;;4954892;28;20070;-62
2023/03/09 11:59:31;;;;;;;4.22;3.50;;;15.60;58.10;;;;;;4941398;28;20043;-60
2023/03/09 12:01:56;;;;;;;4.78;3.40;;;15.60;58.20;;;;;;4956998;28;20042;-61
2023/03/09 12:04:22;;;;;;;4.80;3.53;;;15.60;58.00;;;;;;4953356;28;20030;-59
2023/03/09 12:07:01;;;;;;;5.18;3.50;;;15.70;58.20;;;;;;4955473;28;20031;-61
2023/03/09 12:09:51;;;;;;;4.82;3.20;;;15.70;57.80;;;;;;4950274;28;20117;-61
2023/03/09 12:12:29;;;;;;;3.83;3.30;;;15.70;57.90;;;;;;4947120;28;20050;-61
2023/03/09 12:15:20;;;;;;;4.03;3.30;;;15.70;58.00;;;;;;4954426;28;20070;-60
2023/03/09 12:17:51;;;;;;;4.03;3.38;;;15.70;57.90;;;;;;4954901;28;20058;-63
2023/03/09 12:20:39;;;;;;;4.13;3.25;;;15.70;57.90;;;;;;4948105;28;20031;-59
2023/03/09 12:23:20;;;;;;;6.05;3.50;;;15.80;57.60;;;;;;4948523;28;20054;-63
2023/03/09 12:25:56;;;;;;;2.60;2.40;;;15.80;57.70;;;;;;4962790;28;20043;-61
2023/03/09 12:28:22;;;;;;;4.78;3.22;;;15.80;57.40;;;;;;4957069;28;20620;-59
2023/03/09 12:30:56;;;;;;;3.85;3.00;;;15.80;57.60;;;;;;4951196;28;20035;-61
2023/03/09 12:33:41;;;;;;;3.28;2.97;;;15.80;57.40;;;;;;4966410;28;20190;-62
2023/03/09 12:36:29;;;;;;;4.05;3.30;;;15.90;57.40;;;;;;4956361;28;20042;-61
2023/03/09 12:39:23;;;;;;;4.57;3.33;;;15.90;57.30;;;;;;4955531;28;21554;-61
2023/03/09 12:42:07;;;;;;;3.70;3.08;;;15.90;57.30;;;;;;4956312;28;20035;-62
2023/03/09 12:44:45;;;;;;;3.40;2.80;;;15.90;57.00;;;;;;4960817;28;20042;-59
2023/03/09 12:47:43;;;;;;;3.58;2.78;;;15.90;56.90;;;;;;4952074;28;20174;-61
2023/03/09 12:50:32;;;;;;;3.10;2.80;;;15.90;56.80;;;;;;4967672;28;20042;-61
2023/03/09 12:53:07;;;;;;;4.18;2.83;;;15.90;56.90;;;;;;4960081;28;20035;-60